Time;durP1;ratioP1;P1;durP2;ratioP2;P2;SDS_P1;SDS_P2;PMS_P1;PMS_P2;Temp;Humidity;BMP_temperature;BMP_pressure;BME280_temperature;BME280_humidity;BME280_pressure;Samples;Min_cycle;Max_cycle;Signal;HPM_P1;HPM_P2
2020/12/04 00:00:00;;;;;;;23.53;13.23;;;1.50;99.90;;;;;;5069094;28;20205;-69
2020/12/04 00:02:26;;;;;;;17.97;10.43;;;1.50;99.90;;;;;;5072819;28;20654;-69
2020/12/04 00:04:52;;;;;;;22.20;12.87;;;1.50;99.90;;;;;;5076437;28;20193;-69
2020/12/04 00:07:19;;;;;;;23.17;13.53;;;1.50;99.90;;;;;;5069673;28;20201;-69
2020/12/04 00:09:45;;;;;;;25.33;12.63;;;1.50;99.90;;;;;;5078442;28;20635;-68
2020/12/04 00:12:12;;;;;;;26.23;13.70;;;1.50;99.90;;;;;;5077844;28;20352;-69
2020/12/04 00:14:39;;;;;;;24.00;12.77;;;1.50;99.90;;;;;;5074899;28;20208;-69
2020/12/04 00:17:07;;;;;;;25.73;13.60;;;1.50;99.90;;;;;;5079025;28;20205;-69
2020/12/04 00:19:34;;;;;;;23.90;13.57;;;1.50;99.90;;;;;;5077215;28;20237;-69
2020/12/04 00:22:00;;;;;;;25.00;14.37;;;1.50;99.90;;;;;;5076132;28;20232;-69
2020/12/04 00:24:29;;;;;;;23.53;14.03;;;1.50;99.90;;;;;;5069619;28;20201;-69
2020/12/04 00:26:56;;;;;;;22.63;13.33;;;1.50;99.90;;;;;;5069129;28;20622;-69
2020/12/04 00:29:24;;;;;;;22.83;12.10;;;1.60;99.90;;;;;;5072486;28;20721;-68
2020/12/04 00:31:50;;;;;;;27.27;14.80;;;1.50;99.90;;;;;;5075006;28;20305;-70
2020/12/04 00:34:18;;;;;;;23.77;14.00;;;1.60;99.90;;;;;;5076433;28;20617;-71
2020/12/04 00:36:48;;;;;;;27.33;13.73;;;1.60;99.90;;;;;;5076857;28;20305;-70
2020/12/04 00:39:15;;;;;;;24.43;13.10;;;1.60;99.90;;;;;;5069024;28;20240;-69
2020/12/04 00:41:41;;;;;;;27.10;13.27;;;1.50;99.90;;;;;;5072459;28;20701;-69
2020/12/04 00:44:08;;;;;;;26.00;14.53;;;1.60;99.90;;;;;;5071977;28;20205;-68
2020/12/04 00:46:34;;;;;;;25.73;14.23;;;1.50;99.90;;;;;;5072261;28;20278;-69
2020/12/04 00:49:01;;;;;;;23.90;13.23;;;1.60;99.90;;;;;;5068071;28;20255;-68
2020/12/04 00:51:29;;;;;;;23.37;12.73;;;1.50;99.90;;;;;;5071891;28;20527;-68
2020/12/04 00:53:55;;;;;;;23.87;13.77;;;1.50;99.90;;;;;;5068511;28;20202;-69
2020/12/04 00:56:22;;;;;;;23.37;13.60;;;1.60;99.90;;;;;;5068064;28;20304;-69
2020/12/04 00:58:48;;;;;;;23.03;13.00;;;1.50;99.90;;;;;;5070214;28;20210;-69
2020/12/04 01:01:15;;;;;;;26.57;14.47;;;1.60;99.90;;;;;;5072684;28;20201;-68
2020/12/04 01:03:42;;;;;;;25.73;13.57;;;1.60;99.90;;;;;;5080086;28;20767;-69
2020/12/04 01:06:11;;;;;;;25.40;12.97;;;1.60;99.90;;;;;;5072697;28;20208;-68
2020/12/04 01:08:38;;;;;;;26.57;13.30;;;1.60;99.90;;;;;;5086814;28;20204;-68
2020/12/04 01:11:05;;;;;;;25.80;13.03;;;1.60;99.90;;;;;;5071794;28;20294;-68
2020/12/04 01:13:32;;;;;;;24.83;12.77;;;1.70;99.90;;;;;;5072122;28;20217;-68
2020/12/04 01:15:58;;;;;;;24.30;12.77;;;1.60;99.90;;;;;;5065348;28;20221;-68
2020/12/04 01:18:25;;;;;;;26.77;13.77;;;1.60;99.90;;;;;;5072392;28;20213;-69
2020/12/04 01:20:51;;;;;;;23.17;13.47;;;1.60;99.90;;;;;;5071630;28;20666;-69
2020/12/04 01:23:18;;;;;;;27.60;13.90;;;1.60;99.90;;;;;;5072696;28;20237;-68
2020/12/04 01:25:45;;;;;;;24.03;12.70;;;1.60;99.90;;;;;;5071977;28;20202;-70
2020/12/04 01:28:11;;;;;;;24.90;13.27;;;1.60;99.90;;;;;;5070927;28;20248;-69
2020/12/04 01:30:38;;;;;;;23.27;13.13;;;1.60;99.90;;;;;;5071519;28;20232;-69
2020/12/04 01:33:05;;;;;;;23.13;11.73;;;1.60;99.90;;;;;;5072022;28;20672;-69
2020/12/04 01:35:31;;;;;;;23.93;12.83;;;1.60;99.90;;;;;;5070709;28;20285;-69
2020/12/04 01:37:58;;;;;;;20.87;12.03;;;1.60;99.90;;;;;;5080268;28;20256;-69
2020/12/04 01:40:24;;;;;;;26.77;13.30;;;1.50;99.90;;;;;;5077712;28;20657;-69
2020/12/04 01:42:51;;;;;;;22.97;12.20;;;1.50;99.90;;;;;;5075516;28;20619;-68
2020/12/04 01:45:18;;;;;;;27.40;13.60;;;1.60;99.90;;;;;;5071916;28;20254;-68
2020/12/04 01:47:45;;;;;;;26.33;13.17;;;1.60;99.90;;;;;;5084604;28;20244;-68
2020/12/04 01:50:11;;;;;;;27.70;14.07;;;1.60;99.90;;;;;;5074469;28;20245;-68
2020/12/04 01:52:38;;;;;;;24.97;13.10;;;1.50;99.90;;;;;;5074897;28;20248;-68
2020/12/04 01:55:05;;;;;;;23.00;10.47;;;1.60;99.90;;;;;;5066778;28;20222;-69
2020/12/04 01:57:35;;;;;;;27.43;14.50;;;1.60;99.90;;;;;;5074995;28;20198;-69
2020/12/04 02:00:03;;;;;;;27.73;13.40;;;1.60;99.90;;;;;;5074675;28;20219;-68
2020/12/04 02:02:30;;;;;;;21.87;12.57;;;1.60;99.90;;;;;;5070735;28;20236;-68
2020/12/04 02:04:56;;;;;;;24.93;13.00;;;1.60;99.90;;;;;;5076949;28;20291;-68
2020/12/04 02:07:29;;;;;;;28.80;13.53;;;1.60;99.90;;;;;;5075082;28;20749;-69
2020/12/04 02:10:02;;;;;;;23.83;13.13;;;1.60;99.90;;;;;;5083819;28;20298;-70
2020/12/04 02:12:30;;;;;;;25.40;13.27;;;1.60;99.90;;;;;;5080497;28;20585;-70
2020/12/04 02:14:57;;;;;;;24.07;12.90;;;1.60;99.90;;;;;;5081121;28;20239;-69
2020/12/04 02:17:32;;;;;;;22.00;11.40;;;1.60;99.90;;;;;;5072469;28;20670;-70
2020/12/04 02:19:59;;;;;;;23.80;12.63;;;1.70;99.90;;;;;;5092743;28;20212;-69
2020/12/04 02:22:34;;;;;;;23.50;13.07;;;1.70;99.90;;;;;;5088003;28;20254;-68
2020/12/04 02:25:01;;;;;;;24.73;12.50;;;1.70;99.90;;;;;;5075387;28;20247;-69
2020/12/04 02:27:27;;;;;;;21.90;11.93;;;1.70;99.90;;;;;;5074569;28;20237;-69
2020/12/04 02:29:54;;;;;;;24.57;12.80;;;1.70;99.90;;;;;;5090217;28;20254;-69
2020/12/04 02:32:20;;;;;;;22.03;12.30;;;1.70;99.90;;;;;;5092666;28;20262;-69
2020/12/04 02:34:47;;;;;;;22.33;12.53;;;1.70;99.90;;;;;;5075177;28;20209;-69
2020/12/04 02:37:13;;;;;;;21.90;12.73;;;1.70;99.90;;;;;;5077176;28;20272;-68
2020/12/04 02:39:41;;;;;;;23.33;12.47;;;1.70;99.90;;;;;;5082472;28;20267;-68
2020/12/04 02:42:07;;;;;;;22.97;10.87;;;1.70;99.90;;;;;;5073979;28;20240;-68
2020/12/04 02:44:34;;;;;;;18.80;11.10;;;1.70;99.90;;;;;;5074282;28;20615;-70
2020/12/04 02:47:01;;;;;;;21.47;11.97;;;1.70;99.90;;;;;;5074127;28;20231;-69
2020/12/04 02:49:27;;;;;;;21.17;11.37;;;1.70;99.90;;;;;;5069572;28;20655;-69
2020/12/04 02:51:54;;;;;;;19.53;11.07;;;1.60;99.90;;;;;;5071046;28;20197;-68
2020/12/04 02:54:21;;;;;;;20.73;10.97;;;1.70;99.90;;;;;;5074197;28;20205;-69
2020/12/04 02:56:48;;;;;;;20.60;11.30;;;1.70;99.90;;;;;;5073449;28;20693;-68
2020/12/04 02:59:15;;;;;;;21.27;11.37;;;1.70;99.90;;;;;;5073610;28;20241;-69
2020/12/04 03:01:41;;;;;;;21.40;11.53;;;1.70;99.90;;;;;;5076265;28;20213;-69
2020/12/04 03:04:08;;;;;;;21.03;11.60;;;1.70;99.90;;;;;;5072136;28;20200;-70
2020/12/04 03:06:34;;;;;;;20.73;11.60;;;1.70;99.90;;;;;;5074989;28;20197;-70
2020/12/04 03:09:01;;;;;;;21.97;12.23;;;1.70;99.90;;;;;;5086875;28;20240;-70
2020/12/04 03:11:27;;;;;;;19.77;11.17;;;1.70;99.90;;;;;;5084193;28;20228;-70
2020/12/04 03:13:55;;;;;;;22.40;10.70;;;1.80;99.90;;;;;;5076347;28;20228;-69
2020/12/04 03:16:24;;;;;;;19.87;11.43;;;1.80;99.90;;;;;;5086367;28;20681;-69
2020/12/04 03:18:50;;;;;;;23.87;11.83;;;1.80;99.90;;;;;;5087005;28;20205;-70
2020/12/04 03:21:17;;;;;;;26.20;12.80;;;1.80;99.90;;;;;;5082975;28;20586;-69
2020/12/04 03:23:43;;;;;;;21.47;11.07;;;1.80;99.90;;;;;;5081000;28;20239;-69
2020/12/04 03:26:10;;;;;;;21.23;11.13;;;1.80;99.90;;;;;;5069758;28;20202;-70
2020/12/04 03:28:36;;;;;;;21.93;11.70;;;1.80;99.90;;;;;;5079474;28;20692;-69
2020/12/04 03:31:03;;;;;;;23.47;11.67;;;1.80;99.90;;;;;;5079586;28;20261;-69
2020/12/04 03:33:30;;;;;;;20.17;11.20;;;1.80;99.90;;;;;;5084630;28;20284;-68
2020/12/04 03:35:56;;;;;;;22.33;12.30;;;1.80;99.90;;;;;;5075767;28;20260;-69
2020/12/04 03:38:23;;;;;;;20.93;12.47;;;1.80;99.90;;;;;;5078851;28;20324;-70
2020/12/04 03:40:50;;;;;;;19.53;11.60;;;1.70;99.90;;;;;;5081110;28;20242;-70
2020/12/04 03:43:16;;;;;;;20.03;11.97;;;1.70;99.90;;;;;;5070515;28;20262;-69
2020/12/04 03:45:42;;;;;;;21.57;12.10;;;1.70;99.90;;;;;;5073753;28;20684;-70
2020/12/04 03:48:10;;;;;;;21.00;11.57;;;1.70;99.90;;;;;;5073902;28;20259;-69
2020/12/04 03:50:36;;;;;;;19.30;12.07;;;1.70;99.90;;;;;;5073976;28;20661;-69
2020/12/04 03:53:03;;;;;;;22.70;12.53;;;1.70;99.90;;;;;;5073288;28;20267;-69
2020/12/04 03:55:29;;;;;;;23.57;12.17;;;1.70;99.90;;;;;;5072302;28;20225;-71
2020/12/04 03:57:55;;;;;;;21.87;12.73;;;1.70;99.90;;;;;;5073363;28;20263;-69
2020/12/04 04:00:22;;;;;;;21.67;11.97;;;1.70;99.90;;;;;;5073156;28;20655;-69
2020/12/04 04:02:49;;;;;;;20.60;11.63;;;1.70;99.90;;;;;;5080704;28;20213;-70
2020/12/04 04:05:17;;;;;;;19.90;12.00;;;1.70;99.90;;;;;;5078553;28;20202;-70
2020/12/04 04:07:43;;;;;;;22.63;12.37;;;1.70;99.90;;;;;;5069995;28;20244;-69
2020/12/04 04:10:10;;;;;;;22.37;11.73;;;1.70;99.90;;;;;;5071524;28;20247;-69
2020/12/04 04:12:36;;;;;;;21.07;10.87;;;1.70;99.90;;;;;;5073506;28;20232;-69
2020/12/04 04:15:03;;;;;;;21.63;12.17;;;1.70;99.90;;;;;;5071646;28;20298;-70
2020/12/04 04:17:29;;;;;;;21.60;11.40;;;1.70;99.90;;;;;;5071792;28;20257;-69
2020/12/04 04:19:56;;;;;;;21.43;11.13;;;1.70;99.90;;;;;;5069343;28;20298;-69
2020/12/04 04:22:23;;;;;;;19.47;11.00;;;1.70;99.90;;;;;;5082616;28;20208;-69
2020/12/04 04:24:49;;;;;;;18.60;11.73;;;1.70;99.90;;;;;;5074814;28;20241;-70
2020/12/04 04:27:16;;;;;;;19.37;10.03;;;1.70;99.90;;;;;;5063716;28;20239;-69
2020/12/04 04:29:42;;;;;;;17.70;10.23;;;1.70;99.90;;;;;;5072190;28;20263;-68
2020/12/04 04:32:09;;;;;;;22.07;11.53;;;1.70;99.90;;;;;;5074925;28;20654;-68
2020/12/04 04:34:35;;;;;;;23.80;11.90;;;1.70;99.90;;;;;;5072914;28;20231;-69
2020/12/04 04:37:02;;;;;;;19.77;11.27;;;1.70;99.90;;;;;;5064950;28;20237;-68
2020/12/04 04:39:29;;;;;;;20.83;11.23;;;1.70;99.90;;;;;;5072823;28;20287;-68
2020/12/04 04:41:57;;;;;;;18.97;11.27;;;1.70;99.90;;;;;;5081002;28;20251;-69
2020/12/04 04:44:23;;;;;;;19.03;11.97;;;1.70;99.90;;;;;;5071945;28;20227;-68
2020/12/04 04:47:02;;;;;;;18.87;10.90;;;1.70;99.90;;;;;;5086664;28;20229;-68
2020/12/04 04:49:29;;;;;;;19.73;11.13;;;1.70;99.90;;;;;;5072445;28;20528;-68
2020/12/04 04:51:57;;;;;;;17.23;10.93;;;1.70;99.90;;;;;;5072648;28;20233;-68
2020/12/04 04:54:25;;;;;;;15.53;10.33;;;1.70;99.90;;;;;;5071740;28;20202;-68
2020/12/04 04:56:53;;;;;;;19.67;11.20;;;1.70;99.90;;;;;;5085223;28;20263;-68
2020/12/04 04:59:21;;;;;;;18.73;10.83;;;1.70;99.90;;;;;;5072132;28;20251;-68
2020/12/04 05:01:49;;;;;;;18.87;11.23;;;1.70;99.90;;;;;;5072736;28;20209;-68
2020/12/04 05:04:16;;;;;;;17.27;9.73;;;1.70;99.90;;;;;;5078907;28;20639;-68
2020/12/04 05:06:43;;;;;;;17.10;10.73;;;1.70;99.90;;;;;;5071891;28;20209;-67
2020/12/04 05:09:16;;;;;;;22.77;11.97;;;1.70;99.90;;;;;;5078215;28;20250;-67
2020/12/04 05:11:56;;;;;;;16.03;9.83;;;1.70;99.90;;;;;;5079951;28;20304;-69
2020/12/04 05:14:24;;;;;;;19.73;10.73;;;1.70;99.90;;;;;;5077487;28;20201;-69
2020/12/04 05:16:53;;;;;;;19.53;10.37;;;1.70;99.90;;;;;;5084470;28;20581;-67
2020/12/04 05:19:30;;;;;;;19.57;11.40;;;1.70;99.90;;;;;;5085574;28;20205;-67
2020/12/04 05:21:56;;;;;;;19.80;11.73;;;1.70;99.90;;;;;;5076875;28;20243;-68
2020/12/04 05:24:27;;;;;;;20.37;11.20;;;1.70;99.90;;;;;;5080048;28;20213;-68
2020/12/04 05:26:55;;;;;;;15.67;10.27;;;1.70;99.90;;;;;;5072498;28;20210;-68
2020/12/04 05:29:21;;;;;;;19.67;10.23;;;1.70;99.90;;;;;;5075566;28;20229;-68
2020/12/04 05:31:48;;;;;;;19.83;11.10;;;1.70;99.90;;;;;;5087433;28;20231;-68
2020/12/04 05:34:22;;;;;;;17.93;10.67;;;1.70;99.90;;;;;;5082593;28;20611;-67
2020/12/04 05:36:51;;;;;;;18.47;10.43;;;1.70;99.90;;;;;;5078986;28;20685;-68
2020/12/04 05:39:18;;;;;;;18.97;11.50;;;1.70;99.90;;;;;;5075621;28;20300;-68
2020/12/04 05:41:48;;;;;;;18.70;10.93;;;1.70;99.90;;;;;;5075475;28;20240;-69
2020/12/04 05:44:16;;;;;;;20.20;11.20;;;1.70;99.90;;;;;;5069017;28;20231;-68
2020/12/04 05:46:53;;;;;;;18.53;11.63;;;1.70;99.90;;;;;;5090274;28;20617;-68
2020/12/04 05:49:19;;;;;;;21.13;11.27;;;1.70;99.90;;;;;;5075941;28;20193;-68
2020/12/04 05:51:48;;;;;;;17.10;9.57;;;1.70;99.90;;;;;;5076471;28;20270;-67
2020/12/04 05:54:15;;;;;;;19.20;10.13;;;1.70;99.90;;;;;;5083421;28;20717;-67
2020/12/04 05:56:43;;;;;;;20.23;11.40;;;1.70;99.90;;;;;;5083074;28;20270;-68
2020/12/04 05:59:13;;;;;;;18.13;11.40;;;1.70;99.90;;;;;;5082584;28;20624;-68
2020/12/04 06:01:45;;;;;;;16.80;9.37;;;1.70;99.90;;;;;;5078760;28;20258;-68
2020/12/04 06:04:16;;;;;;;19.77;11.03;;;1.70;99.90;;;;;;5071534;28;20292;-68
2020/12/04 06:06:45;;;;;;;21.37;11.03;;;1.70;99.90;;;;;;5072474;28;20201;-68
2020/12/04 06:09:12;;;;;;;20.07;10.10;;;1.70;99.90;;;;;;5072168;28;20296;-68
2020/12/04 06:11:41;;;;;;;17.30;10.30;;;1.70;99.90;;;;;;5083942;28;20259;-70
2020/12/04 06:14:14;;;;;;;19.27;10.17;;;1.70;99.90;;;;;;5075340;28;20236;-69
2020/12/04 06:16:41;;;;;;;21.03;11.23;;;1.70;99.90;;;;;;5077459;28;20228;-70
2020/12/04 06:19:29;;;;;;;18.13;10.97;;;1.70;99.90;;;;;;5086252;28;20263;-69
2020/12/04 06:22:04;;;;;;;19.20;11.60;;;1.70;99.90;;;;;;5082495;28;20215;-68
2020/12/04 06:24:31;;;;;;;19.17;10.37;;;1.70;99.90;;;;;;5073667;28;20284;-69
2020/12/04 06:26:58;;;;;;;20.73;11.33;;;1.80;99.90;;;;;;5075766;28;20210;-68
2020/12/04 06:29:24;;;;;;;20.57;11.10;;;1.80;99.90;;;;;;5076768;28;20300;-69
2020/12/04 06:31:51;;;;;;;19.90;11.07;;;1.80;99.90;;;;;;5077306;28;20213;-69
2020/12/04 06:34:19;;;;;;;17.10;10.17;;;1.80;99.90;;;;;;5079995;28;20197;-69
2020/12/04 06:36:48;;;;;;;18.30;10.80;;;1.80;99.90;;;;;;5078365;28;20713;-69
2020/12/04 06:39:31;;;;;;;20.30;11.03;;;1.80;99.90;;;;;;5078816;28;20255;-68
2020/12/04 06:41:58;;;;;;;20.10;11.30;;;1.80;99.90;;;;;;5073605;28;20248;-69
2020/12/04 06:44:26;;;;;;;19.17;10.70;;;1.80;99.90;;;;;;5074026;28;20251;-69
2020/12/04 06:46:55;;;;;;;24.13;11.70;;;1.90;99.90;;;;;;5088313;28;20288;-69
2020/12/04 06:49:34;;;;;;;19.63;10.20;;;1.90;99.90;;;;;;5073457;28;20316;-68
2020/12/04 06:52:04;;;;;;;19.83;10.73;;;1.90;99.90;;;;;;5074432;28;20201;-68
2020/12/04 06:54:32;;;;;;;21.57;11.00;;;2.00;99.90;;;;;;5084344;28;20208;-70
2020/12/04 06:57:00;;;;;;;17.00;10.50;;;2.00;99.90;;;;;;5075207;28;20924;-69
2020/12/04 06:59:28;;;;;;;17.23;10.40;;;2.00;99.90;;;;;;5072645;28;20205;-69
2020/12/04 07:02:01;;;;;;;19.07;10.60;;;2.00;99.90;;;;;;5075126;28;20296;-70
2020/12/04 07:04:29;;;;;;;21.57;11.17;;;2.00;99.90;;;;;;5088119;28;20234;-71
2020/12/04 07:07:08;;;;;;;19.70;10.47;;;2.10;99.90;;;;;;5061520;28;20202;-70
2020/12/04 07:09:35;;;;;;;18.70;10.73;;;2.10;99.90;;;;;;5066757;28;20227;-75
2020/12/04 07:12:03;;;;;;;18.57;11.67;;;2.20;99.90;;;;;;5077044;28;20656;-75
2020/12/04 07:14:29;;;;;;;19.83;11.47;;;2.20;99.90;;;;;;5077145;28;20259;-75
2020/12/04 07:16:56;;;;;;;20.17;11.63;;;2.20;99.90;;;;;;5075908;28;20225;-76
2020/12/04 07:19:23;;;;;;;21.50;11.17;;;2.20;99.90;;;;;;5079599;28;20208;-74
2020/12/04 07:21:50;;;;;;;20.23;11.50;;;2.30;99.90;;;;;;5082661;28;20205;-75
2020/12/04 07:24:19;;;;;;;17.93;10.53;;;2.30;99.90;;;;;;5086497;28;20201;-75
2020/12/04 07:26:51;;;;;;;19.23;10.63;;;2.30;99.90;;;;;;5076918;28;20636;-75
2020/12/04 07:29:18;;;;;;;21.10;11.93;;;2.30;99.90;;;;;;5079305;28;20680;-75
2020/12/04 07:31:47;;;;;;;21.97;10.90;;;2.40;99.90;;;;;;5084379;28;20219;-75
2020/12/04 07:34:17;;;;;;;18.20;10.60;;;2.40;99.90;;;;;;5082314;28;20212;-70
2020/12/04 07:36:49;;;;;;;20.60;12.10;;;2.40;99.90;;;;;;5074432;28;20239;-70
2020/12/04 07:39:24;;;;;;;17.97;10.10;;;2.40;99.90;;;;;;5078079;28;20205;-70
2020/12/04 07:41:50;;;;;;;23.47;12.03;;;2.50;99.90;;;;;;5081154;28;20653;-70
2020/12/04 07:44:17;;;;;;;20.80;11.70;;;2.50;99.90;;;;;;5072033;28;20208;-71
2020/12/04 07:46:43;;;;;;;17.80;11.00;;;2.60;99.90;;;;;;5079874;28;20240;-71
2020/12/04 07:49:12;;;;;;;20.70;11.17;;;2.70;99.90;;;;;;5073302;28;20800;-71
2020/12/04 07:51:41;;;;;;;19.90;11.00;;;2.70;99.90;;;;;;5071566;28;20233;-71
2020/12/04 07:54:20;;;;;;;19.57;11.57;;;2.80;99.90;;;;;;5072801;28;20209;-71
2020/12/04 07:56:53;;;;;;;18.57;10.30;;;2.90;99.90;;;;;;5072626;28;20300;-70
2020/12/04 07:59:24;;;;;;;23.17;12.00;;;3.00;99.90;;;;;;5073190;28;20269;-71
2020/12/04 08:01:51;;;;;;;20.00;10.90;;;3.10;99.90;;;;;;5072757;28;20209;-70
2020/12/04 08:04:18;;;;;;;18.23;11.00;;;3.20;99.90;;;;;;5087087;28;20288;-70
2020/12/04 08:06:45;;;;;;;18.60;10.93;;;3.30;99.90;;;;;;5071126;28;20236;-72
2020/12/04 08:09:14;;;;;;;19.53;11.87;;;3.40;99.90;;;;;;5072561;28;20220;-70
2020/12/04 08:11:52;;;;;;;21.60;11.50;;;3.50;99.90;;;;;;5070046;28;20244;-70
2020/12/04 08:14:26;;;;;;;22.73;11.87;;;3.50;99.90;;;;;;5072806;28;20719;-73
2020/12/04 08:16:57;;;;;;;19.63;12.37;;;3.70;99.90;;;;;;5072737;28;20231;-74
2020/12/04 08:19:25;;;;;;;22.70;11.70;;;3.80;99.90;;;;;;5067163;28;20208;-72
2020/12/04 08:21:58;;;;;;;17.83;11.20;;;3.90;99.90;;;;;;5080876;28;20254;-69
2020/12/04 08:24:27;;;;;;;20.53;12.47;;;4.00;99.90;;;;;;5073309;28;20650;-71
2020/12/04 08:27:09;;;;;;;22.73;12.53;;;4.10;99.90;;;;;;5072354;28;20206;-69
2020/12/04 08:29:38;;;;;;;21.17;12.30;;;4.30;99.90;;;;;;5090650;28;20203;-73
2020/12/04 08:32:13;;;;;;;20.43;11.53;;;4.50;99.90;;;;;;5083481;28;20243;-70
2020/12/04 08:34:42;;;;;;;20.07;11.60;;;4.80;99.90;;;;;;5081388;28;20615;-72
2020/12/04 08:37:11;;;;;;;18.90;10.80;;;5.30;99.90;;;;;;5076631;28;20287;-70
2020/12/04 08:39:48;;;;;;;22.20;12.07;;;5.50;99.90;;;;;;5075114;28;20249;-73
2020/12/04 08:42:29;;;;;;;18.87;10.40;;;5.60;99.90;;;;;;5065706;28;20715;-72
2020/12/04 08:45:03;;;;;;;23.13;12.17;;;5.50;99.90;;;;;;5073823;28;20258;-72
2020/12/04 08:47:38;;;;;;;20.67;11.07;;;5.50;99.90;;;;;;5072158;28;20243;-73
2020/12/04 08:50:14;;;;;;;20.97;11.40;;;5.40;99.90;;;;;;5072020;28;20649;-73
2020/12/04 08:52:47;;;;;;;21.43;11.60;;;5.40;99.90;;;;;;5077080;28;20209;-74
2020/12/04 08:55:15;;;;;;;23.33;11.87;;;5.30;99.90;;;;;;5083524;28;20222;-77
2020/12/04 08:57:44;;;;;;;18.77;10.73;;;5.10;99.90;;;;;;5088583;28;20263;-77
2020/12/04 09:00:14;;;;;;;19.90;11.93;;;5.00;99.90;;;;;;5090423;28;20210;-71
2020/12/04 09:02:41;;;;;;;19.23;11.23;;;5.10;99.90;;;;;;5081501;28;20293;-72
2020/12/04 09:05:10;;;;;;;21.37;12.57;;;5.30;99.90;;;;;;5067890;28;20692;-71
2020/12/04 09:07:37;;;;;;;19.57;11.70;;;5.60;99.90;;;;;;5080132;28;20229;-70
2020/12/04 09:10:05;;;;;;;18.53;11.40;;;5.80;99.90;;;;;;5077836;28;20218;-70
2020/12/04 09:12:32;;;;;;;18.10;11.10;;;6.10;99.90;;;;;;5084084;28;20278;-73
2020/12/04 09:14:59;;;;;;;23.43;11.30;;;6.10;99.90;;;;;;5082119;28;20213;-70
2020/12/04 09:17:26;;;;;;;16.73;11.33;;;6.10;99.90;;;;;;5075585;28;20224;-72
2020/12/04 09:19:52;;;;;;;17.47;11.17;;;6.00;99.90;;;;;;5081276;28;20706;-75
2020/12/04 09:22:19;;;;;;;18.53;11.47;;;6.00;99.90;;;;;;5083749;28;20641;-72
2020/12/04 09:24:46;;;;;;;24.97;12.30;;;5.90;99.90;;;;;;5077417;28;20213;-73
2020/12/04 09:27:12;;;;;;;17.87;11.00;;;5.80;99.90;;;;;;5080822;28;20242;-71
2020/12/04 09:29:39;;;;;;;22.27;11.90;;;5.70;99.90;;;;;;5084135;28;20291;-71
2020/12/04 09:32:12;;;;;;;17.40;10.83;;;5.60;99.90;;;;;;5090891;28;20212;-71
2020/12/04 09:34:41;;;;;;;17.57;10.90;;;5.50;99.90;;;;;;5077296;28;20292;-71
2020/12/04 09:37:16;;;;;;;18.00;11.73;;;5.30;99.90;;;;;;5070236;28;20720;-73
2020/12/04 09:39:44;;;;;;;23.53;12.23;;;5.20;99.90;;;;;;5075077;28;20344;-71
2020/12/04 09:42:12;;;;;;;18.00;10.70;;;5.10;99.90;;;;;;5075811;28;20209;-71
2020/12/04 09:44:38;;;;;;;18.97;12.07;;;5.10;99.90;;;;;;5076131;28;20647;-72
2020/12/04 09:47:05;;;;;;;18.07;11.37;;;5.20;99.90;;;;;;5075134;28;20197;-72
2020/12/04 09:49:32;;;;;;;20.20;10.63;;;5.40;99.90;;;;;;5076814;28;20232;-72
2020/12/04 09:51:59;;;;;;;18.40;11.37;;;5.50;99.90;;;;;;5076161;28;20236;-72
2020/12/04 09:54:27;;;;;;;25.73;11.17;;;5.70;99.90;;;;;;5080377;28;20251;-73
2020/12/04 09:56:54;;;;;;;19.20;11.63;;;6.00;99.90;;;;;;5075504;28;20241;-73
2020/12/04 09:59:21;;;;;;;17.87;11.40;;;6.40;99.90;;;;;;5088453;28;20264;-74
2020/12/04 10:01:49;;;;;;;18.10;10.83;;;6.70;99.90;;;;;;5081859;28;20646;-73
2020/12/04 10:04:17;;;;;;;17.77;10.70;;;7.10;99.90;;;;;;5080198;28;20243;-73
2020/12/04 10:06:44;;;;;;;18.40;10.60;;;7.50;99.90;;;;;;5080141;28;20205;-73
2020/12/04 10:09:11;;;;;;;18.63;10.97;;;7.60;99.90;;;;;;5074942;28;20201;-73
2020/12/04 10:11:38;;;;;;;21.97;11.80;;;7.60;99.90;;;;;;5072676;28;20639;-74
2020/12/04 10:14:05;;;;;;;18.00;10.73;;;7.50;99.90;;;;;;5078707;28;20201;-73
2020/12/04 10:16:32;;;;;;;21.00;12.17;;;7.50;99.90;;;;;;5079999;28;20225;-75
2020/12/04 10:18:59;;;;;;;19.67;11.63;;;7.40;99.90;;;;;;5081560;28;20578;-74
2020/12/04 10:21:25;;;;;;;16.07;10.53;;;7.30;99.90;;;;;;5085244;28;20217;-74
2020/12/04 10:23:54;;;;;;;19.37;10.80;;;7.20;99.90;;;;;;5088850;28;20208;-73
2020/12/04 10:26:20;;;;;;;21.07;10.60;;;7.10;99.90;;;;;;5075457;28;20194;-74
2020/12/04 10:28:47;;;;;;;16.70;10.23;;;7.00;99.90;;;;;;5077290;28;20220;-73
2020/12/04 10:31:13;;;;;;;21.00;10.37;;;6.90;99.90;;;;;;5075400;28;20224;-73
2020/12/04 10:33:40;;;;;;;15.30;10.53;;;6.80;99.90;;;;;;5075582;28;20623;-74
2020/12/04 10:36:07;;;;;;;17.90;10.50;;;6.60;99.90;;;;;;5077941;28;20723;-73
2020/12/04 10:38:33;;;;;;;17.80;10.27;;;6.40;99.90;;;;;;5074704;28;20237;-73
2020/12/04 10:41:01;;;;;;;18.00;10.43;;;6.30;99.90;;;;;;5071629;28;20241;-74
2020/12/04 10:43:27;;;;;;;19.90;10.90;;;6.20;99.90;;;;;;5073915;28;20263;-73
2020/12/04 10:45:54;;;;;;;17.37;10.00;;;6.00;99.90;;;;;;5083462;28;20211;-73
2020/12/04 10:48:21;;;;;;;17.37;10.30;;;5.90;99.90;;;;;;5084932;28;20239;-72
2020/12/04 10:50:48;;;;;;;18.73;10.83;;;5.70;99.90;;;;;;5081009;28;20213;-72
2020/12/04 10:53:14;;;;;;;19.07;10.80;;;5.60;99.90;;;;;;5082522;28;20291;-73
2020/12/04 10:55:43;;;;;;;19.80;10.33;;;5.50;99.90;;;;;;5071346;28;20224;-74
2020/12/04 10:58:11;;;;;;;22.70;11.50;;;5.40;99.90;;;;;;5078970;28;20307;-73
2020/12/04 11:00:38;;;;;;;17.40;11.37;;;5.40;99.90;;;;;;5075346;28;20210;-74
2020/12/04 11:03:11;;;;;;;19.47;10.53;;;5.30;99.90;;;;;;5081151;28;20300;-73
2020/12/04 11:05:40;;;;;;;15.50;9.93;;;5.30;99.90;;;;;;5074046;28;20225;-73
2020/12/04 11:08:07;;;;;;;18.63;10.10;;;5.20;99.90;;;;;;5076898;28;20193;-73
2020/12/04 11:10:34;;;;;;;19.27;11.37;;;5.10;99.90;;;;;;5077147;28;20369;-73
2020/12/04 11:13:01;;;;;;;15.30;9.53;;;5.10;99.90;;;;;;5081259;28;20257;-73
2020/12/04 11:15:28;;;;;;;17.33;9.80;;;5.00;99.90;;;;;;5081254;28;20212;-73
2020/12/04 11:17:55;;;;;;;17.97;10.97;;;4.90;99.90;;;;;;5073246;28;20294;-73
2020/12/04 11:20:23;;;;;;;19.10;11.33;;;4.80;99.90;;;;;;5059950;28;20232;-73
2020/12/04 11:22:50;;;;;;;21.97;10.80;;;4.80;99.90;;;;;;5068586;28;20658;-72
2020/12/04 11:25:17;;;;;;;16.83;10.63;;;4.80;99.90;;;;;;5073637;28;20266;-73
2020/12/04 11:27:45;;;;;;;19.27;10.87;;;4.70;99.90;;;;;;5074566;28;20197;-73
2020/12/04 11:30:13;;;;;;;18.93;10.83;;;4.70;99.90;;;;;;5073889;28;20696;-73
2020/12/04 11:32:40;;;;;;;22.83;10.70;;;4.70;99.90;;;;;;5075941;28;20200;-72
2020/12/04 11:35:08;;;;;;;17.47;10.13;;;4.70;99.90;;;;;;5076463;28;20231;-74
2020/12/04 11:37:35;;;;;;;18.03;10.87;;;4.80;99.90;;;;;;5074934;28;20323;-74
2020/12/04 11:40:02;;;;;;;16.83;10.27;;;4.80;99.90;;;;;;5072629;28;20292;-72
2020/12/04 11:42:29;;;;;;;22.30;11.23;;;4.80;99.90;;;;;;5072685;28;20642;-72
2020/12/04 11:44:56;;;;;;;16.40;10.17;;;4.80;99.90;;;;;;5072421;28;20213;-73
2020/12/04 11:47:25;;;;;;;17.63;10.90;;;4.90;99.90;;;;;;5072822;28;20612;-73
2020/12/04 11:49:53;;;;;;;22.90;10.30;;;4.80;99.90;;;;;;5072919;28;20205;-73
2020/12/04 11:52:20;;;;;;;20.87;10.47;;;4.90;99.90;;;;;;5079086;28;20612;-73
2020/12/04 11:54:47;;;;;;;19.17;10.80;;;4.90;99.90;;;;;;5073080;28;20617;-73
2020/12/04 11:57:13;;;;;;;19.17;10.90;;;4.90;99.90;;;;;;5066760;28;20289;-73
2020/12/04 11:59:40;;;;;;;22.57;11.10;;;4.90;99.90;;;;;;5072309;28;20244;-74
2020/12/04 12:02:07;;;;;;;18.80;10.63;;;4.90;99.90;;;;;;5076341;28;20200;-73
2020/12/04 12:04:34;;;;;;;21.17;11.60;;;4.80;99.90;;;;;;5086182;28;20257;-74
2020/12/04 12:07:01;;;;;;;20.00;10.90;;;4.80;99.90;;;;;;5073224;28;20209;-73
2020/12/04 12:09:28;;;;;;;16.87;10.80;;;4.70;99.90;;;;;;5072876;28;20650;-73
2020/12/04 12:11:54;;;;;;;20.83;11.23;;;4.70;99.90;;;;;;5069293;28;20253;-72
2020/12/04 12:14:20;;;;;;;18.10;10.80;;;4.70;99.90;;;;;;5071532;28;20231;-72
2020/12/04 12:16:48;;;;;;;22.10;11.80;;;4.60;99.90;;;;;;5071915;28;20298;-72
2020/12/04 12:19:15;;;;;;;18.00;10.80;;;4.60;99.90;;;;;;5076029;28;20205;-73
2020/12/04 12:21:44;;;;;;;21.00;11.37;;;4.60;99.90;;;;;;5074849;28;20548;-73
2020/12/04 12:24:11;;;;;;;20.07;11.10;;;4.60;99.90;;;;;;5074027;28;20550;-73
2020/12/04 12:26:38;;;;;;;21.13;12.17;;;4.60;99.90;;;;;;5073350;28;20231;-73
2020/12/04 12:29:04;;;;;;;22.03;12.27;;;4.60;99.90;;;;;;5070649;28;20300;-72
2020/12/04 12:31:31;;;;;;;17.40;10.93;;;4.60;99.90;;;;;;5073054;28;20233;-74
2020/12/04 12:33:58;;;;;;;18.97;11.10;;;4.60;99.90;;;;;;5072480;28;20212;-73
2020/12/04 12:36:24;;;;;;;19.37;12.40;;;4.60;99.90;;;;;;5068824;28;20685;-76
2020/12/04 12:38:52;;;;;;;21.63;10.97;;;4.60;99.90;;;;;;5081328;28;20213;-73
2020/12/04 12:41:20;;;;;;;24.13;11.87;;;4.60;99.90;;;;;;5075048;28;20618;-75